LICT/TPS METAR and TAF weather

Enter ICAO airport designator
Station Type Date Time Source
LICT METAR 2020/09/28 08:55 UTC NOAA

LICT 280855Z 27015KT 9999 SCT020 24/13 Q1016


Station Type Date Time Source
LICT Decoded METAR 2020/09/28 08:55 UTC NOAA

Trapani / Birgi, Italy (LICT) 37-55N 012-30E 14M
Sep 28, 2020 - 04:55 AM EDT / 2020.09.28 0855 UTC
Wind: from the W (270 degrees) at 17 MPH (15 KT):0
Visibility: greater than 7 mile(s):0
Sky conditions: partly cloudy
Temperature: 75 F (24 C)
Dew Point: 55 F (13 C)
Relative Humidity: 50%
Pressure (altimeter): 30.00 in. Hg (1016 hPa)
ob: LICT 280855Z 27015KT 9999 SCT020 24/13 Q1016
cycle: 9

Station Type Date Time Source
LICT TAF 2019/01/11 09:24 UTC NOAA

TAF TAF LICT 110800Z 1109/1121 33012KT 9999 SCT025

Example: see airport list